Time;durP1;ratioP1;P1;durP2;ratioP2;P2;SDS_P1;SDS_P2;PMS_P1;PMS_P2;Temp;Humidity;BMP_temperature;BMP_pressure;BME280_temperature;BME280_humidity;BME280_pressure;Samples;Min_cycle;Max_cycle;Signal;HPM_P1;HPM_P2
2022/08/29 00:00:06;;;;;;;;;;;;;;;18.65;84.25;95295.69;5136034;27;1016;-49
2022/08/29 00:02:32;;;;;;;;;;;;;;;18.46;85.49;95295.47;5135729;27;1019;-49
2022/08/29 00:04:58;;;;;;;;;;;;;;;18.33;85.81;95296.28;5135846;27;1996;-49
2022/08/29 00:07:24;;;;;;;;;;;;;;;18.12;86.42;95297.28;5135583;27;913;-49
2022/08/29 00:09:50;;;;;;;;;;;;;;;18.00;87.38;95290.78;5135806;27;1095;-49
2022/08/29 00:12:16;;;;;;;;;;;;;;;17.96;87.55;95292.22;5135635;27;984;-49
2022/08/29 00:14:42;;;;;;;;;;;;;;;18.02;87.33;95293.28;5135802;27;1067;-49
2022/08/29 00:17:08;;;;;;;;;;;;;;;18.20;86.86;95296.25;5135421;27;961;-49
2022/08/29 00:19:34;;;;;;;;;;;;;;;18.30;86.40;95293.16;5135641;27;1079;-49
2022/08/29 00:22:00;;;;;;;;;;;;;;;18.23;86.38;95287.72;5135578;27;949;-49
2022/08/29 00:24:26;;;;;;;;;;;;;;;18.21;86.53;95283.53;5135394;27;2024;-49
2022/08/29 00:26:52;;;;;;;;;;;;;;;18.14;87.44;95276.25;5135430;27;1047;-49
2022/08/29 00:29:18;;;;;;;;;;;;;;;18.18;86.44;95281.28;5135126;27;1127;-49
2022/08/29 00:31:44;;;;;;;;;;;;;;;18.14;86.24;95281.66;5135177;27;1069;-49
2022/08/29 00:34:10;;;;;;;;;;;;;;;18.09;87.30;95278.75;5135274;27;1036;-49
2022/08/29 00:36:37;;;;;;;;;;;;;;;18.13;87.32;95274.56;5135199;27;1008;-49
2022/08/29 00:39:03;;;;;;;;;;;;;;;18.03;86.57;95279.56;5135274;27;977;-49
2022/08/29 00:41:29;;;;;;;;;;;;;;;17.79;87.11;95277.38;5135202;27;1048;-49
2022/08/29 00:43:55;;;;;;;;;;;;;;;17.68;87.95;95271.53;5138964;27;1918;-49
2022/08/29 00:46:40;;;;;;;;;;;;;;;17.73;87.72;95271.72;5155720;27;1034;-49
2022/08/29 00:49:21;;;;;;;;;;;;;;;17.66;87.95;95273.59;5155765;27;1099;-49
2022/08/29 00:51:47;;;;;;;;;;;;;;;17.71;87.84;95270.28;5155830;27;999;-49
2022/08/29 00:54:14;;;;;;;;;;;;;;;17.80;87.55;95269.06;5155476;27;1122;-49
2022/08/29 00:56:41;;;;;;;;;;;;;;;17.76;87.82;95268.63;5155689;27;1067;-49
2022/08/29 00:59:09;;;;;;;;;;;;;;;17.81;87.39;95269.88;5155359;27;976;-49
2022/08/29 01:01:35;;;;;;;;;;;;;;;17.81;86.84;95275.31;5155837;27;1067;-49
2022/08/29 01:04:01;;;;;;;;;;;;;;;17.82;87.30;95276.97;5155320;27;1994;-49
2022/08/29 01:06:29;;;;;;;;;;;;;;;17.81;87.07;95269.88;5155507;27;1118;-50
2022/08/29 01:08:55;;;;;;;;;;;;;;;17.89;86.48;95270.59;5155372;27;960;-49
2022/08/29 01:14:06;;;;;;;;;;;;;;;17.72;87.42;95271.97;5155388;27;1036;-49
2022/08/29 01:16:32;;;;;;;;;;;;;;;17.70;87.18;95274.00;5155544;27;1028;-49
2022/08/29 01:19:00;;;;;;;;;;;;;;;17.52;87.57;95285.38;5155262;27;1032;-49
2022/08/29 01:21:52;;;;;;;;;;;;;;;17.47;87.50;95282.44;5155260;27;1023;-49
2022/08/29 01:24:40;;;;;;;;;;;;;;;17.37;87.99;95282.81;5150176;27;1901;-49
2022/08/29 01:27:06;;;;;;;;;;;;;;;17.49;87.49;95283.06;5155118;27;1075;-49
2022/08/29 01:29:33;;;;;;;;;;;;;;;17.49;87.46;95285.78;5154963;27;1087;-49
2022/08/29 01:31:59;;;;;;;;;;;;;;;17.48;87.35;95287.66;5154678;27;964;-49
2022/08/29 01:34:26;;;;;;;;;;;;;;;17.47;87.50;95285.16;5154800;27;969;-48
2022/08/29 01:36:54;;;;;;;;;;;;;;;17.50;87.22;95290.16;5155357;27;1023;-49
2022/08/29 01:39:23;;;;;;;;;;;;;;;17.34;87.98;95283.22;5154966;27;984;-49
2022/08/29 01:41:49;;;;;;;;;;;;;;;17.31;88.61;95284.44;5155009;27;1079;-49
2022/08/29 01:44:20;;;;;;;;;;;;;;;17.34;88.32;95289.47;5147789;27;2047;-49
2022/08/29 01:46:47;;;;;;;;;;;;;;;17.39;88.10;95291.56;5134263;28;1092;-49
2022/08/29 01:49:14;;;;;;;;;;;;;;;17.42;87.94;95290.34;5133990;28;1044;-48
2022/08/29 01:51:40;;;;;;;;;;;;;;;17.44;87.84;95299.91;5134468;28;989;-49
2022/08/29 01:54:07;;;;;;;;;;;;;;;17.41;87.41;95297.59;5134140;28;1047;-49
2022/08/29 01:56:35;;;;;;;;;;;;;;;17.33;88.25;95293.19;5134206;28;1099;-49
2022/08/29 01:59:04;;;;;;;;;;;;;;;17.34;88.04;95286.75;5134076;28;973;-49
2022/08/29 02:01:31;;;;;;;;;;;;;;;17.47;87.54;95287.84;5134151;28;976;-48
2022/08/29 02:03:57;;;;;;;;;;;;;;;17.40;87.42;95289.72;5133902;28;1918;-49
2022/08/29 02:06:24;;;;;;;;;;;;;;;17.42;87.74;95283.06;5133994;28;1024;-49
2022/08/29 02:08:50;;;;;;;;;;;;;;;17.38;87.52;95287.19;5134107;28;1035;-49
2022/08/29 02:11:16;;;;;;;;;;;;;;;17.29;87.96;95289.22;5134133;28;1000;-49
2022/08/29 02:13:48;;;;;;;;;;;;;;;17.26;88.50;95284.19;5133950;28;985;-49
2022/08/29 02:16:16;;;;;;;;;;;;;;;17.26;88.64;95284.19;5133907;28;1032;-49
2022/08/29 02:18:42;;;;;;;;;;;;;;;17.29;88.00;95288.41;5134041;28;1054;-49
2022/08/29 02:21:10;;;;;;;;;;;;;;;17.21;88.11;95284.00;5134054;28;996;-49
2022/08/29 02:23:36;;;;;;;;;;;;;;;17.26;88.38;95284.19;5133922;28;981;-49
2022/08/29 02:26:03;;;;;;;;;;;;;;;17.26;87.85;95288.78;5133749;28;1897;-49
2022/08/29 02:28:30;;;;;;;;;;;;;;;17.17;88.43;95288.94;5133902;28;976;-49
2022/08/29 02:30:57;;;;;;;;;;;;;;;17.11;88.52;95286.19;5133573;28;1080;-49
2022/08/29 02:33:23;;;;;;;;;;;;;;;17.05;88.68;95292.41;5133982;28;1055;-49
2022/08/29 02:35:49;;;;;;;;;;;;;;;16.96;89.18;95291.72;5133825;28;1094;-49
2022/08/29 02:38:15;;;;;;;;;;;;;;;17.02;89.05;95292.81;5133912;28;1024;-49
2022/08/29 02:40:42;;;;;;;;;;;;;;;16.97;89.45;95290.69;5133705;28;972;-49
2022/08/29 02:43:08;;;;;;;;;;;;;;;17.20;87.90;95293.09;5133944;27;1099;-49
2022/08/29 02:45:35;;;;;;;;;;;;;;;17.22;87.85;95290.22;5155285;27;1925;-49
2022/08/29 02:48:01;;;;;;;;;;;;;;;17.08;88.36;95281.19;5158441;27;977;-49
2022/08/29 02:50:27;;;;;;;;;;;;;;;17.02;88.50;95284.72;5158121;27;1118;-49
2022/08/29 02:52:53;;;;;;;;;;;;;;;16.90;88.76;95290.66;5158294;27;1003;-49
2022/08/29 02:55:20;;;;;;;;;;;;;;;16.77;89.67;95287.81;5157809;27;1035;-49
2022/08/29 02:57:46;;;;;;;;;;;;;;;16.71;89.99;95291.28;5158016;27;1837;-49
2022/08/29 03:00:16;;;;;;;;;;;;;;;16.78;89.91;95293.00;5157621;27;1176;-49
2022/08/29 03:02:43;;;;;;;;;;;;;;;16.89;89.47;95299.78;5157956;27;1047;-49
2022/08/29 03:05:09;;;;;;;;;;;;;;;16.95;89.24;95298.97;5157532;27;1905;-49
2022/08/29 03:07:35;;;;;;;;;;;;;;;16.93;89.25;95298.34;5157833;27;1110;-49
2022/08/29 03:10:03;;;;;;;;;;;;;;;17.00;89.02;95295.69;5157758;27;976;-49
2022/08/29 03:12:29;;;;;;;;;;;;;;;16.97;89.43;95302.31;5157745;27;1087;-49
2022/08/29 03:14:55;;;;;;;;;;;;;;;17.02;89.45;95301.75;5157471;27;1063;-49
2022/08/29 03:17:21;;;;;;;;;;;;;;;16.95;89.45;95307.06;5157541;27;1099;-49
2022/08/29 03:19:47;;;;;;;;;;;;;;;17.03;89.17;95310.66;5157575;27;1043;-49
2022/08/29 03:22:14;;;;;;;;;;;;;;;17.04;89.09;95313.19;5157406;27;1032;-49
2022/08/29 03:24:40;;;;;;;;;;;;;;;17.14;88.22;95307.41;5157371;27;1906;-49
2022/08/29 03:27:06;;;;;;;;;;;;;;;17.17;88.25;95312.44;5157377;27;1105;-48
2022/08/29 03:29:32;;;;;;;;;;;;;;;17.13;88.34;95305.75;5156942;27;1107;-49
2022/08/29 03:31:58;;;;;;;;;;;;;;;17.07;88.97;95307.38;5157526;27;1074;-49
2022/08/29 03:34:26;;;;;;;;;;;;;;;17.02;89.23;95312.53;5157304;27;1024;-48
2022/08/29 03:36:52;;;;;;;;;;;;;;;16.89;89.25;95310.56;5157126;27;1016;-48
2022/08/29 03:39:18;;;;;;;;;;;;;;;16.70;89.48;95306.66;5157183;27;1039;-48
2022/08/29 03:41:44;;;;;;;;;;;;;;;16.73;89.79;95314.38;5156969;27;1035;-49
2022/08/29 03:44:11;;;;;;;;;;;;;;;16.66;90.06;95307.25;5150709;27;1992;-49
2022/08/29 03:46:38;;;;;;;;;;;;;;;16.69;89.95;95320.34;5136163;27;1028;-49
2022/08/29 03:49:06;;;;;;;;;;;;;;;16.76;89.57;95315.84;5136383;27;1020;-49
2022/08/29 03:51:35;;;;;;;;;;;;;;;16.68;89.28;95318.69;5136051;27;1082;-48
2022/08/29 03:54:01;;;;;;;;;;;;;;;16.63;89.99;95321.97;5135877;27;1029;-49
2022/08/29 03:56:27;;;;;;;;;;;;;;;16.67;90.10;95327.81;5135803;27;1208;-50
2022/08/29 03:58:54;;;;;;;;;;;;;;;16.76;89.91;95326.63;5136379;27;1044;-49
2022/08/29 04:01:23;;;;;;;;;;;;;;;16.81;89.64;95337.69;5135767;27;1106;-49
2022/08/29 04:03:49;;;;;;;;;;;;;;;16.82;90.23;95335.81;5136186;27;1024;-50
2022/08/29 04:06:15;;;;;;;;;;;;;;;16.77;89.86;95334.56;5135711;27;1138;-50
2022/08/29 04:08:42;;;;;;;;;;;;;;;16.75;89.71;95343.84;5135883;27;1031;-49
2022/08/29 04:11:12;;;;;;;;;;;;;;;16.70;89.43;95339.06;5135595;27;1054;-49
2022/08/29 04:13:39;;;;;;;;;;;;;;;16.77;89.94;95345.34;5135799;27;1083;-50
2022/08/29 04:16:09;;;;;;;;;;;;;;;16.85;89.92;95343.59;5135681;27;1012;-50
2022/08/29 04:18:36;;;;;;;;;;;;;;;17.03;89.09;95349.31;5135856;27;1000;-49
2022/08/29 04:21:04;;;;;;;;;;;;;;;17.21;87.97;95348.84;5135508;27;953;-50
2022/08/29 04:23:30;;;;;;;;;;;;;;;17.20;88.96;95352.56;5135661;27;1121;-50
2022/08/29 04:25:56;;;;;;;;;;;;;;;17.17;89.19;95355.66;5135273;27;1993;-49
2022/08/29 04:28:22;;;;;;;;;;;;;;;17.12;89.23;95352.72;5135664;27;1056;-49
2022/08/29 04:30:50;;;;;;;;;;;;;;;16.97;90.15;95350.94;5135156;27;1194;-49
2022/08/29 04:33:16;;;;;;;;;;;;;;;16.89;90.32;95356.47;5135486;27;964;-49
2022/08/29 04:35:42;;;;;;;;;;;;;;;16.96;90.51;95354.69;5135087;27;1226;-49
2022/08/29 04:38:08;;;;;;;;;;;;;;;17.10;90.28;95362.88;5135304;27;965;-49
2022/08/29 04:40:35;;;;;;;;;;;;;;;17.22;90.48;95365.88;5135076;27;1051;-49
2022/08/29 04:43:01;;;;;;;;;;;;;;;17.34;89.67;95362.44;5135203;27;1079;-49
2022/08/29 04:45:27;;;;;;;;;;;;;;;17.48;89.68;95357.94;5152389;27;1921;-49
2022/08/29 04:47:54;;;;;;;;;;;;;;;17.59;89.97;95356.53;5155868;27;1028;-49
2022/08/29 04:50:22;;;;;;;;;;;;;;;17.75;89.94;95366.19;5155797;27;1030;-49
2022/08/29 04:52:51;;;;;;;;;;;;;;;17.92;88.82;95362.13;5155637;27;1023;-49
2022/08/29 04:55:17;;;;;;;;;;;;;;;18.19;88.33;95364.09;5155508;27;940;-49
2022/08/29 04:57:44;;;;;;;;;;;;;;;18.35;87.09;95361.03;5155712;27;977;-49
2022/08/29 05:00:12;;;;;;;;;;;;;;;18.47;86.27;95356.69;5155714;27;941;-49
2022/08/29 05:02:39;;;;;;;;;;;;;;;18.72;85.08;95356.94;5155587;27;985;-49
2022/08/29 05:05:06;;;;;;;;;;;;;;;18.95;83.25;95358.41;5155477;27;1918;-49
2022/08/29 05:07:32;;;;;;;;;;;;;;;19.13;84.65;95357.81;5154636;27;1199;-49
2022/08/29 05:10:00;;;;;;;;;;;;;;;18.99;85.11;95353.41;5155375;27;1297;-49
2022/08/29 05:12:29;;;;;;;;;;;;;;;18.85;85.08;95361.56;5155109;27;1111;-49
2022/08/29 05:14:56;;;;;;;;;;;;;;;18.78;84.78;95358.00;5155600;27;973;-49
2022/08/29 05:17:22;;;;;;;;;;;;;;;18.84;85.49;95359.06;5155208;27;1192;-49
2022/08/29 05:19:49;;;;;;;;;;;;;;;18.86;84.00;95368.66;5155394;27;1203;-50
2022/08/29 05:22:15;;;;;;;;;;;;;;;18.79;84.56;95365.06;5155020;27;1953;-50
2022/08/29 05:24:42;;;;;;;;;;;;;;;18.89;84.08;95364.69;5155418;27;1992;-49
2022/08/29 05:27:09;;;;;;;;;;;;;;;19.04;82.94;95370.72;5155168;27;980;-50
2022/08/29 05:33:16;;;;;;;;;;;;;;;19.57;77.99;95380.69;4234119;27;2362;-50
2022/08/29 05:35:42;;;;;;;;;;;;;;;19.62;78.34;95380.06;5155344;27;1035;-50
2022/08/29 05:38:08;;;;;;;;;;;;;;;19.68;77.94;95380.03;5154975;27;1070;-49
2022/08/29 05:40:34;;;;;;;;;;;;;;;19.81;77.42;95381.09;5155059;27;1048;-49
2022/08/29 05:43:00;;;;;;;;;;;;;;;19.88;77.65;95379.16;5154882;27;953;-50
2022/08/29 05:45:26;;;;;;;;;;;;;;;20.05;77.55;95385.81;5137691;27;1921;-49
2022/08/29 05:47:52;;;;;;;;;;;;;;;20.22;75.97;95388.88;5134349;28;1051;-50
2022/08/29 05:50:18;;;;;;;;;;;;;;;20.51;73.73;95381.22;5134413;28;1213;-49
2022/08/29 05:52:44;;;;;;;;;;;;;;;20.63;74.26;95384.94;5134124;28;1872;-49
2022/08/29 05:55:10;;;;;;;;;;;;;;;20.76;72.75;95381.28;5134229;28;964;-49
2022/08/29 05:57:37;;;;;;;;;;;;;;;20.64;73.48;95381.16;5134046;28;1029;-50
2022/08/29 06:00:04;;;;;;;;;;;;;;;20.68;72.46;95378.84;5134009;28;969;-49
2022/08/29 06:02:30;;;;;;;;;;;;;;;20.81;72.69;95383.34;5134254;28;1036;-49
2022/08/29 06:04:57;;;;;;;;;;;;;;;21.05;71.78;95384.44;5134242;28;1994;-49
2022/08/29 06:07:23;;;;;;;;;;;;;;;21.01;72.90;95391.38;5134008;28;1028;-49
2022/08/29 06:09:51;;;;;;;;;;;;;;;21.04;74.11;95385.50;5134230;28;1040;-49
2022/08/29 06:12:18;;;;;;;;;;;;;;;20.78;73.37;95390.06;5133820;28;1039;-50
2022/08/29 06:14:44;;;;;;;;;;;;;;;20.51;75.17;95388.50;5133983;28;1067;-49
2022/08/29 06:17:10;;;;;;;;;;;;;;;20.36;75.45;95389.66;5134229;27;1028;-49
2022/08/29 06:19:38;;;;;;;;;;;;;;;20.35;77.36;95395.28;5137845;27;1033;-50
2022/08/29 06:22:05;;;;;;;;;;;;;;;20.38;77.15;95390.25;5138078;27;1020;-49
2022/08/29 06:24:32;;;;;;;;;;;;;;;20.50;77.11;95397.72;5137711;27;1917;-49
2022/08/29 06:26:59;;;;;;;;;;;;;;;20.54;75.90;95396.22;5137947;27;1063;-49
2022/08/29 06:29:26;;;;;;;;;;;;;;;20.46;75.26;95386.47;5137559;27;972;-50
2022/08/29 06:31:54;;;;;;;;;;;;;;;20.32;76.92;95391.13;5137927;27;1324;-50
2022/08/29 06:34:20;;;;;;;;;;;;;;;20.29;75.21;95396.97;5137715;27;1040;-50
2022/08/29 06:36:46;;;;;;;;;;;;;;;20.27;76.19;95394.47;5137875;27;1046;-50
2022/08/29 06:39:12;;;;;;;;;;;;;;;20.32;75.42;95395.72;5137548;27;975;-50
2022/08/29 06:41:39;;;;;;;;;;;;;;;20.45;76.45;95401.06;5137623;27;1011;-50
2022/08/29 06:44:06;;;;;;;;;;;;;;;20.47;77.76;95401.72;5142438;27;1909;-50
2022/08/29 06:46:33;;;;;;;;;;;;;;;20.53;77.65;95400.84;5158291;27;1075;-50
2022/08/29 06:49:01;;;;;;;;;;;;;;;20.57;77.93;95406.69;5158187;27;991;-50
2022/08/29 06:51:31;;;;;;;;;;;;;;;20.75;77.08;95406.78;5158082;27;1091;-50
2022/08/29 06:53:58;;;;;;;;;;;;;;;23.57;66.56;95417.06;5157957;27;1059;-50
2022/08/29 06:56:24;;;;;;;;;;;;;;;26.36;56.59;95420.13;5157932;27;1042;-51
2022/08/29 06:58:50;;;;;;;;;;;;;;;28.56;50.46;95420.53;5158078;27;1165;-51
2022/08/29 07:01:17;;;;;;;;;;;;;;;30.33;45.70;95428.50;5158316;27;1101;-51
2022/08/29 07:03:44;;;;;;;;;;;;;;;27.92;49.83;95421.50;5157944;27;972;-51
2022/08/29 07:06:10;;;;;;;;;;;;;;;25.35;58.00;95418.31;5157818;27;1980;-50
2022/08/29 07:08:37;;;;;;;;;;;;;;;24.28;61.80;95406.94;5158148;27;1028;-50
2022/08/29 07:11:03;;;;;;;;;;;;;;;24.57;60.83;95409.75;5157646;27;1078;-50
2022/08/29 07:13:29;;;;;;;;;;;;;;;23.19;67.26;95405.47;5157800;27;1058;-50
2022/08/29 07:15:56;;;;;;;;;;;;;;;22.58;68.72;95401.13;5158110;27;975;-49
2022/08/29 07:18:22;;;;;;;;;;;;;;;22.06;72.82;95404.22;5157576;27;1023;-49
2022/08/29 07:20:48;;;;;;;;;;;;;;;21.79;71.69;95417.28;5157701;27;976;-49
2022/08/29 07:23:14;;;;;;;;;;;;;;;21.67;72.47;95414.47;5157488;27;1886;-49
2022/08/29 07:25:40;;;;;;;;;;;;;;;21.60;74.19;95413.72;5157208;27;2007;-49
2022/08/29 07:28:06;;;;;;;;;;;;;;;21.57;74.21;95414.16;5157641;27;995;-49
2022/08/29 07:30:32;;;;;;;;;;;;;;;21.59;75.88;95414.78;5156486;27;1219;-49
2022/08/29 07:32:58;;;;;;;;;;;;;;;21.60;75.98;95413.72;5157337;27;1305;-50
2022/08/29 07:35:25;;;;;;;;;;;;;;;21.61;77.85;95420.81;5157526;27;957;-50
2022/08/29 07:37:54;;;;;;;;;;;;;;;21.61;77.08;95413.50;5157260;27;1057;-49
2022/08/29 07:40:20;;;;;;;;;;;;;;;21.64;78.06;95410.34;5156862;27;1119;-49
2022/08/29 07:42:47;;;;;;;;;;;;;;;21.65;77.27;95416.59;5157422;27;999;-49
2022/08/29 07:45:13;;;;;;;;;;;;;;;21.66;75.57;95414.69;5141894;27;1909;-49
2022/08/29 07:47:40;;;;;;;;;;;;;;;21.67;77.18;95411.75;5136327;27;1076;-49
2022/08/29 07:50:07;;;;;;;;;;;;;;;21.71;76.54;95414.88;5136169;27;1011;-49
2022/08/29 07:52:33;;;;;;;;;;;;;;;21.82;75.65;95411.41;5136805;27;1015;-50
2022/08/29 07:54:59;;;;;;;;;;;;;;;22.03;75.23;95408.25;5136024;27;1040;-50
2022/08/29 07:57:25;;;;;;;;;;;;;;;22.25;76.23;95420.56;5136279;27;1063;-50
2022/08/29 07:59:51;;;;;;;;;;;;;;;22.90;74.15;95411.78;5136116;27;1003;-50
2022/08/29 08:02:18;;;;;;;;;;;;;;;23.38;72.34;95422.59;5136066;27;1028;-49
2022/08/29 08:04:44;;;;;;;;;;;;;;;24.02;69.45;95416.47;5135892;27;1901;-50
2022/08/29 08:07:11;;;;;;;;;;;;;;;24.63;67.37;95418.88;5135836;27;1048;-50
2022/08/29 08:09:37;;;;;;;;;;;;;;;24.80;63.88;95405.28;5135561;27;1040;-49
2022/08/29 08:12:04;;;;;;;;;;;;;;;24.96;63.78;95412.66;5136025;27;971;-50
2022/08/29 08:14:32;;;;;;;;;;;;;;;25.13;60.05;95408.03;5135795;27;953;-50
2022/08/29 08:16:58;;;;;;;;;;;;;;;25.16;61.82;95401.28;5135956;27;992;-50
2022/08/29 08:19:25;;;;;;;;;;;;;;;25.36;61.46;95408.19;5135529;27;970;-50
2022/08/29 08:21:52;;;;;;;;;;;;;;;25.41;61.22;95409.13;5135725;27;964;-50
2022/08/29 08:24:18;;;;;;;;;;;;;;;25.29;60.52;95405.63;5135248;27;1986;-50
2022/08/29 08:26:44;;;;;;;;;;;;;;;25.48;62.07;95409.78;5135824;27;1047;-50
2022/08/29 08:29:11;;;;;;;;;;;;;;;25.51;62.05;95409.28;5135349;27;1127;-50
2022/08/29 08:31:44;;;;;;;;;;;;;;;25.66;61.83;95399.66;5135400;27;1857;-50
2022/08/29 08:34:14;;;;;;;;;;;;;;;25.81;61.41;95401.81;5135251;27;1179;-50
2022/08/29 08:36:41;;;;;;;;;;;;;;;25.98;61.23;95407.28;5135259;27;1040;-50
2022/08/29 08:39:07;;;;;;;;;;;;;;;26.07;61.15;95401.13;5135499;27;1234;-50
2022/08/29 08:41:42;;;;;;;;;;;;;;;26.13;61.51;95402.03;5134303;27;1011;-50
2022/08/29 08:44:25;;;;;;;;;;;;;;;26.07;61.75;95394.81;5140953;27;1990;-50
2022/08/29 08:46:53;;;;;;;;;;;;;;;26.06;61.12;95399.44;5155906;27;984;-50
2022/08/29 08:49:19;;;;;;;;;;;;;;;26.19;59.25;95390.03;5155749;27;1019;-50
2022/08/29 08:51:49;;;;;;;;;;;;;;;26.31;58.74;95398.13;5155607;27;1075;-50
2022/08/29 08:54:22;;;;;;;;;;;;;;;26.32;57.45;95388.03;5155733;27;1102;-49
2022/08/29 08:56:52;;;;;;;;;;;;;;;26.41;57.97;95392.81;5155692;27;972;-50
2022/08/29 08:59:29;;;;;;;;;;;;;;;26.57;58.09;95384.75;5155750;27;1043;-50
2022/08/29 09:01:59;;;;;;;;;;;;;;;26.74;57.22;95382.78;5155446;27;1067;-50
2022/08/29 09:04:31;;;;;;;;;;;;;;;26.74;56.44;95376.47;5155667;27;1905;-50
2022/08/29 09:07:15;;;;;;;;;;;;;;;26.83;55.40;95363.97;5155444;27;1063;-50
2022/08/29 09:10:07;;;;;;;;;;;;;;;26.78;54.69;95366.66;5155674;27;951;-50
2022/08/29 09:12:45;;;;;;;;;;;;;;;26.76;55.54;95364.16;5156014;27;1008;-50
2022/08/29 09:15:16;;;;;;;;;;;;;;;26.81;56.43;95355.16;5155220;27;1035;-50
2022/08/29 09:17:42;;;;;;;;;;;;;;;27.06;55.41;95355.41;5155399;27;1095;-49
2022/08/29 09:20:11;;;;;;;;;;;;;;;27.13;55.29;95355.22;5155184;27;1032;-50
2022/08/29 09:22:39;;;;;;;;;;;;;;;26.93;53.54;95353.09;5155331;27;1015;-50
2022/08/29 09:25:07;;;;;;;;;;;;;;;27.08;55.17;95352.41;5155256;27;1897;-50
2022/08/29 09:27:35;;;;;;;;;;;;;;;27.15;53.40;95344.78;5155444;27;1040;-49
2022/08/29 09:30:04;;;;;;;;;;;;;;;27.30;54.23;95352.38;5155187;27;1028;-50
2022/08/29 09:32:31;;;;;;;;;;;;;;;27.36;52.78;95340.34;5155083;27;1423;-50
2022/08/29 09:34:58;;;;;;;;;;;;;;;27.40;51.48;95341.47;5155168;27;1197;-50
2022/08/29 09:37:26;;;;;;;;;;;;;;;27.47;52.85;95344.00;5154841;27;1051;-50
2022/08/29 09:40:13;;;;;;;;;;;;;;;27.49;52.76;95339.06;5155370;27;973;-50
2022/08/29 09:42:40;;;;;;;;;;;;;;;27.69;52.82;95332.03;5154790;27;1537;-50
2022/08/29 09:45:17;;;;;;;;;;;;;;;27.84;53.72;95327.47;5140806;27;1902;-49
2022/08/29 09:47:44;;;;;;;;;;;;;;;27.96;53.56;95330.03;5116022;28;1045;-50
2022/08/29 09:50:17;;;;;;;;;;;;;;;28.05;52.73;95327.63;5134183;28;964;-50
2022/08/29 09:52:54;;;;;;;;;;;;;;;28.01;51.89;95321.00;5135649;27;995;-50
2022/08/29 09:55:26;;;;;;;;;;;;;;;27.95;51.19;95325.63;5138620;27;1040;-50
2022/08/29 09:57:55;;;;;;;;;;;;;;;28.01;51.06;95321.00;5120177;27;960;-50
2022/08/29 10:00:26;;;;;;;;;;;;;;;28.10;52.04;95313.09;5138350;27;1031;-50
2022/08/29 10:02:57;;;;;;;;;;;;;;;28.24;52.77;95305.97;5138294;27;1862;-50
2022/08/29 10:05:33;;;;;;;;;;;;;;;28.32;52.77;95312.88;5138356;27;1984;-50
2022/08/29 10:08:00;;;;;;;;;;;;;;;28.14;51.87;95308.69;5138209;27;964;-50
2022/08/29 10:10:29;;;;;;;;;;;;;;;28.04;49.73;95306.75;5138225;27;986;-49
2022/08/29 10:12:58;;;;;;;;;;;;;;;28.07;52.18;95300.69;5137966;27;1016;-50
2022/08/29 10:15:30;;;;;;;;;;;;;;;28.14;52.14;95300.47;5138350;27;1027;-50
2022/08/29 10:20:49;;;;;;;;;;;;;;;28.29;51.66;95286.75;5138635;27;1035;-50
2022/08/29 10:23:24;;;;;;;;;;;;;;;28.23;51.08;95288.66;5137813;27;1051;-50
2022/08/29 10:25:50;;;;;;;;;;;;;;;28.26;52.61;95283.72;5138193;27;1981;-49
2022/08/29 10:28:19;;;;;;;;;;;;;;;28.22;50.03;95278.75;5137873;27;973;-50
2022/08/29 10:31:00;;;;;;;;;;;;;;;28.27;48.67;95272.47;5138008;27;1048;-50
2022/08/29 10:33:45;;;;;;;;;;;;;;;28.31;50.94;95270.00;5137485;27;1079;-50
2022/08/29 10:36:16;;;;;;;;;;;;;;;28.52;48.69;95266.22;5137722;27;1035;-50
2022/08/29 10:39:00;;;;;;;;;;;;;;;28.61;48.49;95266.53;5137746;27;1027;-50
2022/08/29 10:41:45;;;;;;;;;;;;;;;28.74;50.26;95267.91;5137693;27;1196;-50
2022/08/29 10:44:20;;;;;;;;;;;;;;;28.68;49.85;95263.50;5144000;27;1910;-50
2022/08/29 10:46:52;;;;;;;;;;;;;;;28.69;49.79;95262.41;5158420;27;1098;-50
2022/08/29 10:49:43;;;;;;;;;;;;;;;28.71;48.89;95251.97;5158392;27;1052;-50
2022/08/29 10:52:32;;;;;;;;;;;;;;;28.61;50.80;95255.53;5157995;27;1090;-50
2022/08/29 10:55:17;;;;;;;;;;;;;;;28.20;51.59;95256.22;5158379;27;956;-49
2022/08/29 10:57:49;;;;;;;;;;;;;;;27.97;51.32;95253.94;5157985;27;1036;-49
2022/08/29 11:00:20;;;;;;;;;;;;;;;27.80;52.01;95246.69;5158095;27;972;-49
2022/08/29 11:03:05;;;;;;;;;;;;;;;27.70;52.84;95251.28;5157840;27;1024;-50
2022/08/29 11:05:37;;;;;;;;;;;;;;;27.58;53.57;95237.78;5156968;27;1909;-49
2022/08/29 11:08:06;;;;;;;;;;;;;;;27.51;52.54;95238.03;5157675;27;1008;-50
2022/08/29 11:10:39;;;;;;;;;;;;;;;27.49;52.47;95236.63;5157859;27;1032;-49
2022/08/29 11:13:17;;;;;;;;;;;;;;;27.42;53.26;95243.19;5157686;27;1035;-50
2022/08/29 11:15:43;;;;;;;;;;;;;;;27.41;54.09;95252.53;5157741;27;1012;-50
2022/08/29 11:18:16;;;;;;;;;;;;;;;27.38;55.71;95250.28;5157650;27;1031;-50
2022/08/29 11:20:45;;;;;;;;;;;;;;;27.33;54.01;95257.66;5157923;27;1040;-50
2022/08/29 11:23:19;;;;;;;;;;;;;;;27.26;55.33;95256.00;5157357;27;1099;-50
2022/08/29 11:25:46;;;;;;;;;;;;;;;27.22;55.10;95265.81;5157475;27;1913;-50
2022/08/29 11:28:32;;;;;;;;;;;;;;;27.14;56.16;95252.56;5157237;27;1014;-50
2022/08/29 11:31:15;;;;;;;;;;;;;;;27.14;57.50;95252.56;5139781;27;1196;-50
2022/08/29 11:33:48;;;;;;;;;;;;;;;27.11;57.15;95246.78;5157217;27;1155;-50
2022/08/29 11:36:42;;;;;;;;;;;;;;;27.05;58.40;95249.50;5157416;27;960;-49
2022/08/29 11:39:13;;;;;;;;;;;;;;;27.02;59.79;95252.75;5157058;27;1063;-50
2022/08/29 11:41:42;;;;;;;;;;;;;;;27.01;59.28;95253.00;5157233;27;1028;-50
2022/08/29 11:44:08;;;;;;;;;;;;;;;27.01;58.69;95248.34;5151159;27;1156;-50
2022/08/29 11:46:39;;;;;;;;;;;;;;;26.98;59.82;95246.16;5136405;27;1040;-50
2022/08/29 11:49:26;;;;;;;;;;;;;;;26.93;60.96;95246.09;5136087;27;1039;-50
2022/08/29 11:51:53;;;;;;;;;;;;;;;26.86;60.24;95253.72;5136351;27;2093;-50
2022/08/29 11:54:23;;;;;;;;;;;;;;;26.76;60.80;95248.16;5136161;27;981;-50
2022/08/29 11:57:01;;;;;;;;;;;;;;;26.71;61.05;95250.84;5136261;27;958;-50
2022/08/29 11:59:48;;;;;;;;;;;;;;;26.60;61.10;95249.94;5135955;27;944;-50
2022/08/29 12:02:27;;;;;;;;;;;;;;;26.52;60.80;95251.16;5136007;27;1036;-50
2022/08/29 12:04:58;;;;;;;;;;;;;;;26.48;60.81;95239.91;5136232;27;1909;-49
2022/08/29 12:07:47;;;;;;;;;;;;;;;26.47;60.91;95238.25;5135978;27;1011;-50
2022/08/29 12:10:23;;;;;;;;;;;;;;;26.50;59.93;95231.41;5122943;27;1691;-50
2022/08/29 12:12:55;;;;;;;;;;;;;;;26.51;59.75;95229.53;5136150;27;991;-50
2022/08/29 12:15:21;;;;;;;;;;;;;;;26.47;59.35;95219.06;5135416;27;1110;-50
2022/08/29 12:17:47;;;;;;;;;;;;;;;26.46;59.58;95216.56;5135851;27;1034;-50
2022/08/29 12:20:34;;;;;;;;;;;;;;;26.45;59.44;95214.94;5135479;27;976;-50
2022/08/29 12:23:09;;;;;;;;;;;;;;;26.48;58.47;95214.41;5135630;27;1032;-49
2022/08/29 12:25:43;;;;;;;;;;;;;;;26.52;58.75;95223.75;5135481;27;1998;-50
2022/08/29 12:28:19;;;;;;;;;;;;;;;26.53;59.81;95216.38;5135425;27;1028;-50
2022/08/29 12:30:47;;;;;;;;;;;;;;;26.57;60.66;95212.84;5135530;27;1024;-50
2022/08/29 12:33:39;;;;;;;;;;;;;;;26.64;59.32;95208.00;5135364;27;1238;-50
2022/08/29 12:36:24;;;;;;;;;;;;;;;26.71;58.84;95207.78;5135355;27;1032;-50
2022/08/29 12:39:12;;;;;;;;;;;;;;;26.76;58.21;95207.81;5135297;27;965;-50
2022/08/29 12:41:57;;;;;;;;;;;;;;;26.83;57.85;95208.44;5135596;27;961;-50
2022/08/29 12:44:27;;;;;;;;;;;;;;;26.83;57.53;95197.47;5142843;27;1990;-50
2022/08/29 12:46:59;;;;;;;;;;;;;;;26.83;58.58;95194.72;5156019;27;1050;-50
2022/08/29 12:49:29;;;;;;;;;;;;;;;26.86;56.75;95198.84;5155746;27;995;-50
2022/08/29 12:51:55;;;;;;;;;;;;;;;26.94;56.54;95184.66;5155829;27;988;-50
2022/08/29 12:54:48;;;;;;;;;;;;;;;27.00;56.98;95191.00;5137405;27;1015;-50
2022/08/29 12:57:22;;;;;;;;;;;;;;;27.02;56.33;95189.66;5151079;27;1089;-50
2022/08/29 12:59:50;;;;;;;;;;;;;;;27.01;56.36;95196.22;5155670;27;952;-50
2022/08/29 13:02:23;;;;;;;;;;;;;;;27.04;57.17;95198.44;5155502;27;1091;-50
2022/08/29 13:04:49;;;;;;;;;;;;;;;27.00;59.00;95196.50;5155592;27;1987;-50
2022/08/29 13:07:17;;;;;;;;;;;;;;;26.96;58.37;95187.97;5155679;27;1003;-50
2022/08/29 13:09:54;;;;;;;;;;;;;;;26.93;57.67;95190.41;5155350;27;1020;-50
2022/08/29 13:12:25;;;;;;;;;;;;;;;26.64;61.06;95197.03;5155519;27;1060;-50
2022/08/29 13:14:51;;;;;;;;;;;;;;;26.44;60.90;95196.81;5155212;27;1027;-49
2022/08/29 13:17:18;;;;;;;;;;;;;;;26.27;61.51;95199.66;5155339;27;1044;-49
2022/08/29 13:20:03;;;;;;;;;;;;;;;26.18;62.19;95196.59;5155411;27;1024;-50